Terminal Aerodrome Forecast
Issued by NWS

Home | Current Version | Previous Version | Graphics & Text | Print | Product List | Glossary On
Versions: 1 2 3 4 5 6 7 8 9 10 11 12 13
000
FTUS43 KICT 260520
TAFHUT
TAF
KHUT 260520Z 2606/2706 17009KT P6SM VCSH BKN100
     FM261200 18010KT P6SM SCT100 BKN200
     FM261900 18014G20KT P6SM SKC
     FM270100 17010KT P6SM SKC=

USA.gov is the U.S. government's official web portal to all federal, state and local government web resources and services.